Terminal Aerodrome Forecast
Issued by NWS Sterling, VA

Current Version | Previous Version | Graphics & Text | Print | Product List | Glossary On
Versions: 1 2 3 4 5 6 7 8 9 10 11 12 13 14 15 16 17 18 19 20 21 22 23
000
FTUS41 KLWX 232034 AAA
TAFIAD
TAF AMD
KIAD 232034Z 2321/2424 22010KT P6SM FEW050 FEW120 SCT250
     FM240000 19005KT P6SM BKN080
     FM240500 19005KT P6SM SCT080
     FM240900 18005KT 3SM BR SCT110
     FM241500 18007KT P6SM SCT150
     FM241900 18011KT P6SM SCT150=

USA.gov is the U.S. government's official web portal to all federal, state and local government web resources and services.